createdAt,value
2022-11-17T00:01:09.559Z,2.78
2022-11-17T00:06:11.609Z,2.80
2022-11-17T00:11:13.751Z,3.35
2022-11-17T00:16:17.372Z,2.97
2022-11-17T00:21:19.960Z,2.97
2022-11-17T00:26:24.251Z,3.08
2022-11-17T00:31:46.098Z,2.70
2022-11-17T00:36:53.363Z,3.08
2022-11-17T00:41:55.740Z,3.47
2022-11-17T00:46:57.765Z,3.55
2022-11-17T00:51:59.573Z,3.15
2022-11-17T00:57:01.904Z,3.13
2022-11-17T01:02:04.012Z,3.45
2022-11-17T01:07:05.890Z,3.50
2022-11-17T01:12:07.805Z,3.75
2022-11-17T01:17:09.645Z,3.20
2022-11-17T01:22:11.491Z,3.38
2022-11-17T01:27:13.310Z,3.00
2022-11-17T01:32:15.141Z,2.80
2022-11-17T01:37:19.736Z,2.85
2022-11-17T01:42:24.443Z,3.20
2022-11-17T01:47:35.188Z,3.40
2022-11-17T01:52:39.233Z,2.88
2022-11-17T01:58:00.084Z,2.63
2022-11-17T02:03:02.322Z,2.78
2022-11-17T02:08:06.869Z,3.33
2022-11-17T02:13:09.487Z,2.97
2022-11-17T02:18:11.665Z,2.97
2022-11-17T02:23:37.628Z,2.55
2022-11-17T02:29:04.944Z,2.42
2022-11-17T02:34:16.604Z,2.42
2022-11-17T02:39:23.738Z,2.10
2022-11-17T02:44:44.329Z,2.38
2022-11-17T02:49:56.717Z,2.38
2022-11-17T02:55:06.897Z,2.40
2022-11-17T03:00:16.746Z,2.13
2022-11-17T03:05:36.916Z,1.77
2022-11-17T03:10:51.569Z,1.98
2022-11-17T03:16:32.147Z,2.00
2022-11-17T03:21:56.136Z,1.80
2022-11-17T03:27:06.265Z,2.17
2022-11-17T03:32:10.090Z,1.85
2022-11-17T03:37:14.830Z,1.75
2022-11-17T03:42:24.363Z,1.80
2022-11-17T03:47:28.610Z,1.77
2022-11-17T03:52:31.284Z,1.90
2022-11-17T03:57:59.673Z,1.70
2022-11-17T04:03:01.585Z,1.98
2022-11-17T04:08:03.702Z,2.20
2022-11-17T04:13:24.303Z,2.00
2022-11-17T04:18:27.187Z,2.13
2022-11-17T04:23:29.024Z,2.08
2022-11-17T04:28:38.919Z,2.40
2022-11-17T04:33:42.987Z,2.33
2022-11-17T04:38:47.304Z,2.20
2022-11-17T04:43:49.283Z,2.50
2022-11-17T04:48:55.648Z,2.45
2022-11-17T04:53:58.074Z,2.20
2022-11-17T04:58:59.972Z,2.50
2022-11-17T05:04:07.447Z,2.60
2022-11-17T05:09:16.405Z,2.25
2022-11-17T05:14:20.379Z,2.63
2022-11-17T05:19:24.835Z,2.28
2022-11-17T05:24:26.729Z,3.40
2022-11-17T05:29:28.543Z,3.42
2022-11-17T05:34:30.955Z,3.17
2022-11-17T05:39:32.760Z,3.33
2022-11-17T05:44:34.601Z,3.22
2022-11-17T05:49:36.423Z,3.17
2022-11-17T05:54:38.251Z,2.78
2022-11-17T05:59:45.468Z,3.40
2022-11-17T06:04:49.580Z,3.28
2022-11-17T06:09:51.970Z,2.92
2022-11-17T06:14:53.806Z,3.58
2022-11-17T06:20:01.535Z,3.70
2022-11-17T06:25:08.447Z,2.60
2022-11-17T06:30:10.768Z,3.15
2022-11-17T06:35:14.488Z,3.10
2022-11-17T06:40:16.676Z,3.00
2022-11-17T06:45:18.493Z,3.53
2022-11-17T06:50:20.436Z,2.97
2022-11-17T06:55:22.287Z,3.20
2022-11-17T07:00:24.083Z,3.40
2022-11-17T07:05:25.984Z,3.38
2022-11-17T07:10:29.237Z,3.38
2022-11-17T07:15:31.965Z,4.35
2022-11-17T07:20:33.776Z,3.10
2022-11-17T07:25:35.677Z,3.78
2022-11-17T07:30:37.557Z,3.28
2022-11-17T07:35:39.436Z,3.03
2022-11-17T07:40:41.579Z,2.90
2022-11-17T07:45:43.618Z,3.10
2022-11-17T07:50:45.467Z,2.88
2022-11-17T07:55:48.288Z,3.20
2022-11-17T08:00:50.524Z,2.97
2022-11-17T08:05:53.516Z,3.35
2022-11-17T08:10:55.324Z,3.45
2022-11-17T08:15:57.943Z,3.35
2022-11-17T08:21:03.913Z,3.75
2022-11-17T08:26:07.665Z,4.32
2022-11-17T08:31:09.479Z,3.33
2022-11-17T08:36:11.986Z,4.25
2022-11-17T08:41:13.946Z,4.28
2022-11-17T08:46:15.775Z,4.18
2022-11-17T08:51:17.612Z,4.07
2022-11-17T08:56:19.505Z,3.90
2022-11-17T09:01:21.464Z,4.07
2022-11-17T09:06:23.673Z,3.75
2022-11-17T09:11:25.596Z,3.75
2022-11-17T09:16:27.518Z,4.25
2022-11-17T09:21:31.533Z,4.13
2022-11-17T09:26:33.363Z,4.05
2022-11-17T09:31:35.815Z,3.50
2022-11-17T09:36:37.710Z,3.00
2022-11-17T09:41:43.686Z,2.72
2022-11-17T09:47:06.608Z,3.20
2022-11-17T09:52:19.829Z,3.20
2022-11-17T09:57:29.161Z,3.13
2022-11-17T10:02:31.057Z,3.40
2022-11-17T10:07:34.992Z,2.72
2022-11-17T10:12:47.755Z,3.35
2022-11-17T10:17:50.789Z,2.92
2022-11-17T10:22:54.604Z,2.63
2022-11-17T10:27:56.402Z,3.42
2022-11-17T10:33:00.478Z,3.30
2022-11-17T10:38:02.226Z,2.85
2022-11-17T10:43:13.193Z,3.17
2022-11-17T10:48:37.701Z,3.28
2022-11-17T10:53:46.194Z,3.47
2022-11-17T10:59:02.493Z,2.90
2022-11-17T11:04:06.176Z,3.75
2022-11-17T11:09:19.067Z,4.20
2022-11-17T11:14:33.958Z,3.65
2022-11-17T11:19:35.827Z,4.22
2022-11-17T11:25:14.838Z,4.22
2022-11-17T11:30:18.351Z,4.30
2022-11-17T11:35:32.523Z,3.70
2022-11-17T11:40:41.174Z,3.92
2022-11-17T11:46:08.368Z,4.32
2022-11-17T11:51:22.281Z,4.72
2022-11-17T11:56:33.541Z,4.57
2022-11-17T12:01:48.997Z,4.38
2022-11-17T12:07:12.889Z,4.50
2022-11-17T12:12:20.619Z,4.43
2022-11-17T12:17:26.161Z,4.35
2022-11-17T12:22:33.999Z,4.32
2022-11-17T12:27:35.767Z,3.90
2022-11-17T12:32:46.589Z,3.78
2022-11-17T12:37:48.955Z,2.95
2022-11-17T12:43:15.899Z,3.63
2022-11-17T12:48:33.435Z,3.60
2022-11-17T12:53:47.997Z,3.35
2022-11-17T12:58:53.425Z,3.45
2022-11-17T13:03:59.409Z,3.38
2022-11-17T13:09:06.224Z,2.92
2022-11-17T13:14:14.380Z,4.35
2022-11-17T13:19:37.250Z,3.65
2022-11-17T13:24:41.624Z,4.15
2022-11-17T13:29:43.606Z,2.90
2022-11-17T13:34:52.626Z,3.13
2022-11-17T13:39:57.295Z,2.30
2022-11-17T13:45:02.599Z,2.80
2022-11-17T13:50:26.219Z,2.67
2022-11-17T13:55:29.305Z,2.90
2022-11-17T14:00:32.030Z,5.55
2022-11-17T14:05:34.222Z,3.55
2022-11-17T14:10:38.580Z,3.80
2022-11-17T14:15:42.436Z,4.00
2022-11-17T14:20:44.493Z,3.70
2022-11-17T14:25:50.246Z,4.22
2022-11-17T14:30:56.456Z,5.25
2022-11-17T14:41:29.153Z,2.95
2022-11-17T14:46:30.982Z,4.85
2022-11-17T14:51:32.903Z,3.92
2022-11-17T14:56:35.019Z,4.32
2022-11-17T15:01:38.698Z,3.92
2022-11-17T15:06:40.504Z,5.25
2022-11-17T15:11:42.310Z,5.13
2022-11-17T15:16:44.097Z,5.22
2022-11-17T15:21:45.920Z,6.57
2022-11-17T15:26:47.803Z,5.55
2022-11-17T15:31:49.931Z,4.80
2022-11-17T15:36:51.828Z,4.93
2022-11-17T15:41:53.756Z,4.88
2022-11-17T15:46:55.934Z,6.28
2022-11-17T15:51:57.978Z,4.88
2022-11-17T15:57:01.533Z,5.15
2022-11-17T16:02:09.457Z,4.43
2022-11-17T16:07:11.339Z,5.95
2022-11-17T16:12:13.243Z,4.82
2022-11-17T16:17:15.079Z,3.80
2022-11-17T16:22:16.952Z,4.55
2022-11-17T16:27:18.746Z,4.28
2022-11-17T16:32:20.562Z,4.70
2022-11-17T16:37:22.355Z,5.45
2022-11-17T16:42:24.153Z,4.82
2022-11-17T16:47:26.011Z,3.78
2022-11-17T16:52:27.820Z,3.83
2022-11-17T16:57:30.167Z,5.90
2022-11-17T17:02:33.429Z,3.97
2022-11-17T17:07:35.407Z,4.38
2022-11-17T17:12:37.334Z,4.43
2022-11-17T17:17:39.159Z,8.75
2022-11-17T17:22:40.960Z,5.75
2022-11-17T17:27:42.819Z,4.38
2022-11-17T17:32:44.625Z,4.03
2022-11-17T17:37:46.430Z,4.43
2022-11-17T17:42:48.252Z,3.60
2022-11-17T17:47:50.053Z,4.93
2022-11-17T17:52:51.884Z,4.22
2022-11-17T17:57:53.731Z,4.65
2022-11-17T18:02:55.668Z,4.65
2022-11-17T18:07:57.513Z,4.80
2022-11-17T18:12:59.341Z,4.40
2022-11-17T18:18:01.503Z,6.28
2022-11-17T18:23:03.373Z,37.20
2022-11-17T18:28:05.368Z,8.05
2022-11-17T18:33:07.167Z,8.35
2022-11-17T18:38:09.105Z,6.10
2022-11-17T18:43:12.551Z,6.05
2022-11-17T18:48:14.592Z,14.88
2022-11-17T18:53:16.814Z,8.23
2022-11-17T18:58:18.708Z,7.47
2022-11-17T19:03:21.199Z,9.90
2022-11-17T19:08:23.137Z,6.43
2022-11-17T19:13:25.599Z,6.40
2022-11-17T19:18:27.449Z,5.57
2022-11-17T19:23:31.422Z,5.03
2022-11-17T19:28:34.029Z,5.82
2022-11-17T19:33:38.140Z,6.25
2022-11-17T19:38:40.692Z,5.05
2022-11-17T19:43:45.341Z,5.78
2022-11-17T19:48:47.549Z,5.97
2022-11-17T19:53:50.956Z,7.57
2022-11-17T19:58:53.880Z,7.03
2022-11-17T20:03:57.633Z,6.30
2022-11-17T20:08:59.578Z,7.40
2022-11-17T20:14:02.471Z,7.22
2022-11-17T20:19:04.861Z,7.22
2022-11-17T20:24:07.268Z,7.95
2022-11-17T20:29:09.284Z,7.50
2022-11-17T20:34:12.888Z,7.05
2022-11-17T20:39:16.185Z,9.10
2022-11-17T20:44:24.539Z,15.10
2022-11-17T20:49:28.297Z,8.27
2022-11-17T20:54:30.360Z,9.57
2022-11-17T20:59:32.225Z,9.00
2022-11-17T21:04:34.348Z,10.38
2022-11-17T21:09:36.163Z,8.65
2022-11-17T21:14:38.031Z,8.80
2022-11-17T21:19:39.834Z,9.60
2022-11-17T21:24:41.646Z,8.75
2022-11-17T21:29:43.431Z,7.68
2022-11-17T21:34:49.624Z,7.97
2022-11-17T21:39:52.243Z,8.35
2022-11-17T21:44:54.048Z,8.50
2022-11-17T21:49:55.876Z,8.25
2022-11-17T21:54:57.731Z,9.13
2022-11-17T21:59:59.550Z,9.60
2022-11-17T22:05:01.345Z,9.65
2022-11-17T22:10:03.517Z,10.18
2022-11-17T22:15:11.349Z,9.93
2022-11-17T22:20:13.527Z,10.48
2022-11-17T22:25:42.970Z,10.27
2022-11-17T22:30:38.928Z,10.27
2022-11-17T22:35:40.782Z,10.35
2022-11-17T22:40:42.844Z,9.82
2022-11-17T22:45:44.752Z,10.20
2022-11-17T22:50:46.636Z,9.65
2022-11-17T22:55:48.471Z,10.55
2022-11-17T23:00:53.032Z,9.25
2022-11-17T23:05:54.863Z,10.95
2022-11-17T23:11:34.894Z,10.35
2022-11-17T23:16:25.561Z,10.98
2022-11-17T23:21:27.442Z,10.07
2022-11-17T23:26:29.243Z,9.55
2022-11-17T23:31:31.104Z,9.15
2022-11-17T23:36:32.890Z,8.82
2022-11-17T23:41:34.729Z,9.82
2022-11-17T23:46:36.999Z,10.30
2022-11-17T23:51:38.862Z,8.90
2022-11-17T23:56:41.164Z,10.40
